sensor_id;sensor_type;location;lat;lon;timestamp;pressure;altitude;pressure_sealevel;temperature;humidity
56681;BME280;42558;52.388;13.390;2023-05-02T00:01:13;100871.66;;;10.37;85.59
56681;BME280;42558;52.388;13.390;2023-05-02T00:03:43;100871.42;;;10.34;85.86
56681;BME280;42558;52.388;13.390;2023-05-02T00:06:14;100867.08;;;10.26;85.79
56681;BME280;42558;52.388;13.390;2023-05-02T00:08:44;100867.33;;;10.21;86.30
56681;BME280;42558;52.388;13.390;2023-05-02T00:11:12;100867.25;;;10.17;86.56
56681;BME280;42558;52.388;13.390;2023-05-02T00:13:41;100869.64;;;10.13;86.45
56681;BME280;42558;52.388;13.390;2023-05-02T00:16:12;100867.30;;;10.09;86.60
56681;BME280;42558;52.388;13.390;2023-05-02T00:18:41;100866.30;;;10.02;87.10
56681;BME280;42558;52.388;13.390;2023-05-02T00:21:09;100865.59;;;9.92;87.26
56681;BME280;42558;52.388;13.390;2023-05-02T00:23:38;100864.48;;;9.89;87.37
56681;BME280;42558;52.388;13.390;2023-05-02T00:26:09;100863.02;;;9.86;86.67
56681;BME280;42558;52.388;13.390;2023-05-02T00:28:38;100864.68;;;9.80;86.34
56681;BME280;42558;52.388;13.390;2023-05-02T00:31:06;100865.98;;;9.75;86.14
56681;BME280;42558;52.388;13.390;2023-05-02T00:33:35;100867.08;;;9.68;86.59
56681;BME280;42558;52.388;13.390;2023-05-02T00:36:03;100864.77;;;9.58;86.98
56681;BME280;42558;52.388;13.390;2023-05-02T00:38:32;100861.10;;;9.49;86.59
56681;BME280;42558;52.388;13.390;2023-05-02T00:41:00;100865.86;;;9.41;86.87
56681;BME280;42558;52.388;13.390;2023-05-02T00:43:29;100861.45;;;9.32;87.14
56681;BME280;42558;52.388;13.390;2023-05-02T00:45:59;100862.20;;;9.25;87.43
56681;BME280;42558;52.388;13.390;2023-05-02T00:48:29;100860.35;;;9.21;87.85
56681;BME280;42558;52.388;13.390;2023-05-02T00:51:02;100861.52;;;9.18;88.00
56681;BME280;42558;52.388;13.390;2023-05-02T00:53:33;100860.56;;;9.14;88.70
56681;BME280;42558;52.388;13.390;2023-05-02T00:56:04;100862.76;;;9.10;88.93
56681;BME280;42558;52.388;13.390;2023-05-02T00:58:35;100862.00;;;9.08;89.22
56681;BME280;42558;52.388;13.390;2023-05-02T01:09:41;100861.52;;;8.85;89.52
56681;BME280;42558;52.388;13.390;2023-05-02T01:12:31;100862.04;;;8.85;89.17
56681;BME280;42558;52.388;13.390;2023-05-02T01:15:06;100868.83;;;8.82;89.07
56681;BME280;42558;52.388;13.390;2023-05-02T01:17:38;100871.47;;;8.76;89.44
56681;BME280;42558;52.388;13.390;2023-05-02T01:20:18;100870.70;;;8.72;89.60
56681;BME280;42558;52.388;13.390;2023-05-02T01:22:50;100878.41;;;8.73;89.47
56681;BME280;42558;52.388;13.390;2023-05-02T01:29:01;100870.61;;;8.76;87.57
56681;BME280;42558;52.388;13.390;2023-05-02T01:31:38;100870.43;;;8.83;86.41
56681;BME280;42558;52.388;13.390;2023-05-02T01:34:11;100877.55;;;8.88;85.63
56681;BME280;42558;52.388;13.390;2023-05-02T01:36:43;100877.38;;;8.96;83.81
56681;BME280;42558;52.388;13.390;2023-05-02T01:39:20;100877.02;;;9.05;82.40
56681;BME280;42558;52.388;13.390;2023-05-02T01:41:55;100884.14;;;9.09;81.24
56681;BME280;42558;52.388;13.390;2023-05-02T01:44:28;100884.09;;;9.15;79.59
56681;BME280;42558;52.388;13.390;2023-05-02T01:46:59;100887.16;;;9.19;79.46
56681;BME280;42558;52.388;13.390;2023-05-02T01:49:32;100888.21;;;9.27;78.19
56681;BME280;42558;52.388;13.390;2023-05-02T01:52:10;100889.05;;;9.34;77.31
56681;BME280;42558;52.388;13.390;2023-05-02T01:54:42;100892.30;;;9.38;77.12
56681;BME280;42558;52.388;13.390;2023-05-02T01:57:15;100891.52;;;9.43;76.11
56681;BME280;42558;52.388;13.390;2023-05-02T01:59:49;100894.24;;;9.56;74.63
56681;BME280;42558;52.388;13.390;2023-05-02T02:02:21;100896.19;;;9.66;74.20
56681;BME280;42558;52.388;13.390;2023-05-02T02:04:56;100894.19;;;9.72;74.06
56681;BME280;42558;52.388;13.390;2023-05-02T02:07:27;100891.94;;;9.74;74.87
56681;BME280;42558;52.388;13.390;2023-05-02T02:09:56;100891.55;;;9.80;73.58
56681;BME280;42558;52.388;13.390;2023-05-02T02:12:39;100893.92;;;9.87;73.58
56681;BME280;42558;52.388;13.390;2023-05-02T02:15:25;100894.65;;;9.87;73.83
56681;BME280;42558;52.388;13.390;2023-05-02T02:18:11;100899.67;;;9.93;73.25
56681;BME280;42558;52.388;13.390;2023-05-02T02:20:44;100902.60;;;9.99;73.05
56681;BME280;42558;52.388;13.390;2023-05-02T02:23:18;100906.63;;;9.98;73.25
56681;BME280;42558;52.388;13.390;2023-05-02T02:25:51;100912.34;;;9.94;73.69
56681;BME280;42558;52.388;13.390;2023-05-02T02:28:22;100918.11;;;9.92;74.30
56681;BME280;42558;52.388;13.390;2023-05-02T02:30:52;100919.05;;;9.95;73.68
56681;BME280;42558;52.388;13.390;2023-05-02T02:33:29;100922.95;;;9.97;74.04
56681;BME280;42558;52.388;13.390;2023-05-02T02:36:20;100929.11;;;9.89;74.38
56681;BME280;42558;52.388;13.390;2023-05-02T02:39:21;100925.87;;;9.85;75.24
56681;BME280;42558;52.388;13.390;2023-05-02T02:42:43;100937.77;;;9.82;75.30
56681;BME280;42558;52.388;13.390;2023-05-02T02:45:33;100941.33;;;9.85;75.51
56681;BME280;42558;52.388;13.390;2023-05-02T02:51:48;100950.70;;;9.89;74.89
56681;BME280;42558;52.388;13.390;2023-05-02T03:00:06;100953.05;;;9.74;76.60
56681;BME280;42558;52.388;13.390;2023-05-02T03:02:40;100958.39;;;9.61;77.29
56681;BME280;42558;52.388;13.390;2023-05-02T03:05:12;100967.00;;;9.52;78.31
56681;BME280;42558;52.388;13.390;2023-05-02T03:07:42;100979.25;;;9.43;78.95
56681;BME280;42558;52.388;13.390;2023-05-02T03:10:12;100994.15;;;9.35;80.13
56681;BME280;42558;52.388;13.390;2023-05-02T03:12:42;100996.45;;;9.28;80.29
56681;BME280;42558;52.388;13.390;2023-05-02T03:18:22;101011.33;;;9.26;79.50
56681;BME280;42558;52.388;13.390;2023-05-02T03:20:50;101012.61;;;9.21;80.19
56681;BME280;42558;52.388;13.390;2023-05-02T03:23:19;101013.13;;;9.20;80.75
56681;BME280;42558;52.388;13.390;2023-05-02T03:25:47;101010.31;;;9.20;80.36
56681;BME280;42558;52.388;13.390;2023-05-02T03:28:16;101014.25;;;9.23;80.56
56681;BME280;42558;52.388;13.390;2023-05-02T03:30:44;101021.73;;;9.28;80.42
56681;BME280;42558;52.388;13.390;2023-05-02T03:33:12;101021.98;;;9.23;80.86
56681;BME280;42558;52.388;13.390;2023-05-02T03:35:41;101029.39;;;9.17;81.27
56681;BME280;42558;52.388;13.390;2023-05-02T03:38:09;101027.42;;;9.17;81.72
56681;BME280;42558;52.388;13.390;2023-05-02T03:40:38;101030.81;;;9.18;82.03
56681;BME280;42558;52.388;13.390;2023-05-02T03:43:06;101028.73;;;9.20;82.37
56681;BME280;42558;52.388;13.390;2023-05-02T03:45:35;101025.63;;;9.22;82.57
56681;BME280;42558;52.388;13.390;2023-05-02T03:48:03;101026.08;;;9.26;82.83
56681;BME280;42558;52.388;13.390;2023-05-02T03:50:31;101038.16;;;9.25;82.85
56681;BME280;42558;52.388;13.390;2023-05-02T03:53:00;101033.34;;;9.29;82.50
56681;BME280;42558;52.388;13.390;2023-05-02T03:55:28;101042.26;;;9.28;82.46
56681;BME280;42558;52.388;13.390;2023-05-02T03:57:57;101045.85;;;9.24;82.74
56681;BME280;42558;52.388;13.390;2023-05-02T04:00:25;101057.63;;;9.24;83.00
56681;BME280;42558;52.388;13.390;2023-05-02T04:02:54;101059.21;;;9.25;83.34
56681;BME280;42558;52.388;13.390;2023-05-02T04:05:22;101058.39;;;9.27;82.89
56681;BME280;42558;52.388;13.390;2023-05-02T04:07:50;101065.57;;;9.27;83.01
56681;BME280;42558;52.388;13.390;2023-05-02T04:10:19;101071.48;;;9.24;83.15
56681;BME280;42558;52.388;13.390;2023-05-02T04:12:47;101073.91;;;9.23;83.46
56681;BME280;42558;52.388;13.390;2023-05-02T04:15:16;101078.29;;;9.23;83.58
56681;BME280;42558;52.388;13.390;2023-05-02T04:17:44;101082.92;;;9.27;83.69
56681;BME280;42558;52.388;13.390;2023-05-02T04:20:12;101085.64;;;9.30;83.57
56681;BME280;42558;52.388;13.390;2023-05-02T04:22:41;101085.89;;;9.33;83.29
56681;BME280;42558;52.388;13.390;2023-05-02T04:25:09;101082.88;;;9.39;83.14
56681;BME280;42558;52.388;13.390;2023-05-02T04:27:38;101086.63;;;9.42;83.04
56681;BME280;42558;52.388;13.390;2023-05-02T04:30:07;101094.44;;;9.46;83.12
56681;BME280;42558;52.388;13.390;2023-05-02T04:32:38;101095.35;;;9.47;82.98
56681;BME280;42558;52.388;13.390;2023-05-02T04:35:08;101099.36;;;9.53;83.06
56681;BME280;42558;52.388;13.390;2023-05-02T04:37:38;101097.80;;;9.54;83.02
56681;BME280;42558;52.388;13.390;2023-05-02T04:40:09;101102.42;;;9.64;82.56
56681;BME280;42558;52.388;13.390;2023-05-02T04:42:39;101108.81;;;9.75;82.10
56681;BME280;42558;52.388;13.390;2023-05-02T04:45:09;101112.11;;;9.89;81.69
56681;BME280;42558;52.388;13.390;2023-05-02T04:47:38;101114.67;;;10.02;80.94
56681;BME280;42558;52.388;13.390;2023-05-02T04:50:09;101118.17;;;10.10;81.05
56681;BME280;42558;52.388;13.390;2023-05-02T04:52:39;101116.27;;;10.20;80.35
56681;BME280;42558;52.388;13.390;2023-05-02T04:55:08;101122.46;;;10.28;80.28
56681;BME280;42558;52.388;13.390;2023-05-02T04:57:38;101125.96;;;10.36;79.99
56681;BME280;42558;52.388;13.390;2023-05-02T05:00:09;101134.96;;;10.38;80.09
56681;BME280;42558;52.388;13.390;2023-05-02T05:02:39;101141.00;;;10.42;80.08
56681;BME280;42558;52.388;13.390;2023-05-02T05:05:09;101143.89;;;10.45;79.71
56681;BME280;42558;52.388;13.390;2023-05-02T05:07:39;101149.16;;;10.44;79.56
56681;BME280;42558;52.388;13.390;2023-05-02T05:10:10;101148.56;;;10.50;79.06
56681;BME280;42558;52.388;13.390;2023-05-02T05:12:39;101149.39;;;10.57;78.79
56681;BME280;42558;52.388;13.390;2023-05-02T05:15:10;101154.06;;;10.61;77.69
56681;BME280;42558;52.388;13.390;2023-05-02T05:17:40;101158.34;;;10.63;76.66
56681;BME280;42558;52.388;13.390;2023-05-02T05:20:10;101155.79;;;10.60;76.77
56681;BME280;42558;52.388;13.390;2023-05-02T05:22:41;101159.87;;;10.71;76.82
56681;BME280;42558;52.388;13.390;2023-05-02T05:25:11;101166.78;;;10.74;76.32
56681;BME280;42558;52.388;13.390;2023-05-02T05:27:39;101170.20;;;10.87;76.20
56681;BME280;42558;52.388;13.390;2023-05-02T05:30:08;101176.18;;;10.97;76.07
56681;BME280;42558;52.388;13.390;2023-05-02T05:32:36;101182.86;;;11.06;75.67
56681;BME280;42558;52.388;13.390;2023-05-02T05:35:05;101190.59;;;11.14;75.58
56681;BME280;42558;52.388;13.390;2023-05-02T05:37:33;101193.38;;;11.13;75.10
56681;BME280;42558;52.388;13.390;2023-05-02T05:40:07;101196.00;;;11.12;75.22
56681;BME280;42558;52.388;13.390;2023-05-02T05:42:36;101195.34;;;11.04;75.04
56681;BME280;42558;52.388;13.390;2023-05-02T05:45:06;101198.13;;;10.93;75.33
56681;BME280;42558;52.388;13.390;2023-05-02T05:47:36;101202.34;;;10.93;75.58
56681;BME280;42558;52.388;13.390;2023-05-02T05:50:07;101202.81;;;10.90;75.75
56681;BME280;42558;52.388;13.390;2023-05-02T05:52:37;101200.80;;;10.96;76.04
56681;BME280;42558;52.388;13.390;2023-05-02T05:55:07;101206.70;;;11.01;75.89
56681;BME280;42558;52.388;13.390;2023-05-02T05:57:37;101208.65;;;11.01;75.95
56681;BME280;42558;52.388;13.390;2023-05-02T06:00:08;101215.63;;;11.07;75.97
56681;BME280;42558;52.388;13.390;2023-05-02T06:02:38;101221.86;;;11.10;75.65
56681;BME280;42558;52.388;13.390;2023-05-02T06:05:08;101227.11;;;11.10;75.89
56681;BME280;42558;52.388;13.390;2023-05-02T06:07:39;101230.80;;;11.29;75.46
56681;BME280;42558;52.388;13.390;2023-05-02T06:10:09;101234.95;;;11.44;75.29
56681;BME280;42558;52.388;13.390;2023-05-02T06:12:38;101239.17;;;11.85;74.65
56681;BME280;42558;52.388;13.390;2023-05-02T06:15:09;101241.05;;;12.14;72.94
56681;BME280;42558;52.388;13.390;2023-05-02T06:17:38;101249.27;;;12.09;72.71
56681;BME280;42558;52.388;13.390;2023-05-02T06:20:08;101253.08;;;12.29;72.26
56681;BME280;42558;52.388;13.390;2023-05-02T06:22:38;101253.80;;;12.67;72.64
56681;BME280;42558;52.388;13.390;2023-05-02T06:25:08;101252.45;;;13.16;70.82
56681;BME280;42558;52.388;13.390;2023-05-02T06:27:36;101254.27;;;13.06;69.41
56681;BME280;42558;52.388;13.390;2023-05-02T06:30:05;101264.95;;;12.85;70.41
56681;BME280;42558;52.388;13.390;2023-05-02T06:32:33;101264.55;;;12.81;70.98
56681;BME280;42558;52.388;13.390;2023-05-02T06:35:03;101276.19;;;12.54;71.79
56681;BME280;42558;52.388;13.390;2023-05-02T06:37:34;101279.60;;;12.71;71.46
56681;BME280;42558;52.388;13.390;2023-05-02T06:40:04;101280.52;;;12.73;71.74
56681;BME280;42558;52.388;13.390;2023-05-02T06:42:34;101280.36;;;13.04;71.07
56681;BME280;42558;52.388;13.390;2023-05-02T06:45:04;101285.16;;;13.07;70.61
56681;BME280;42558;52.388;13.390;2023-05-02T06:47:34;101285.18;;;13.08;71.44
56681;BME280;42558;52.388;13.390;2023-05-02T06:50:05;101289.41;;;13.21;70.76
56681;BME280;42558;52.388;13.390;2023-05-02T06:52:34;101295.61;;;13.38;71.12
56681;BME280;42558;52.388;13.390;2023-05-02T06:55:05;101300.95;;;13.77;69.42
56681;BME280;42558;52.388;13.390;2023-05-02T06:57:34;101311.85;;;14.12;69.07
56681;BME280;42558;52.388;13.390;2023-05-02T07:00:05;101317.50;;;13.90;68.78
56681;BME280;42558;52.388;13.390;2023-05-02T07:02:35;101325.64;;;13.91;69.36
56681;BME280;42558;52.388;13.390;2023-05-02T07:05:05;101326.73;;;13.77;69.16
56681;BME280;42558;52.388;13.390;2023-05-02T07:07:35;101334.08;;;13.50;71.11
56681;BME280;42558;52.388;13.390;2023-05-02T07:10:05;101339.48;;;13.60;71.57
56681;BME280;42558;52.388;13.390;2023-05-02T07:12:35;101343.83;;;13.54;71.51
56681;BME280;42558;52.388;13.390;2023-05-02T07:15:06;101353.34;;;13.22;72.17
56681;BME280;42558;52.388;13.390;2023-05-02T07:17:35;101360.98;;;12.74;74.22
56681;BME280;42558;52.388;13.390;2023-05-02T07:20:06;101363.80;;;12.73;74.91
56681;BME280;42558;52.388;13.390;2023-05-02T07:22:36;101368.68;;;12.58;74.74
56681;BME280;42558;52.388;13.390;2023-05-02T07:25:06;101373.92;;;12.44;75.50
56681;BME280;42558;52.388;13.390;2023-05-02T07:27:35;101376.13;;;12.49;76.36
56681;BME280;42558;52.388;13.390;2023-05-02T07:30:06;101378.42;;;12.49;76.47
56681;BME280;42558;52.388;13.390;2023-05-02T07:32:33;101383.90;;;12.50;76.29
56681;BME280;42558;52.388;13.390;2023-05-02T07:35:04;101382.73;;;12.33;77.25
56681;BME280;42558;52.388;13.390;2023-05-02T07:37:34;101385.16;;;12.76;76.67
56681;BME280;42558;52.388;13.390;2023-05-02T07:40:05;101389.65;;;12.93;75.31
56681;BME280;42558;52.388;13.390;2023-05-02T07:42:35;101391.70;;;13.13;74.01
56681;BME280;42558;52.388;13.390;2023-05-02T07:45:07;101390.23;;;13.21;73.86
56681;BME280;42558;52.388;13.390;2023-05-02T07:47:36;101397.72;;;13.14;73.39
56681;BME280;42558;52.388;13.390;2023-05-02T07:50:06;101398.73;;;12.98;74.33
56681;BME280;42558;52.388;13.390;2023-05-02T07:52:36;101403.00;;;13.24;73.69
56681;BME280;42558;52.388;13.390;2023-05-02T07:55:07;101406.70;;;13.24;73.90
56681;BME280;42558;52.388;13.390;2023-05-02T07:57:37;101409.91;;;13.02;73.96
56681;BME280;42558;52.388;13.390;2023-05-02T08:00:08;101408.26;;;12.86;74.99
56681;BME280;42558;52.388;13.390;2023-05-02T08:02:37;101409.68;;;12.87;75.08
56681;BME280;42558;52.388;13.390;2023-05-02T08:05:08;101409.67;;;12.85;75.20
56681;BME280;42558;52.388;13.390;2023-05-02T08:07:36;101411.83;;;12.89;75.65
56681;BME280;42558;52.388;13.390;2023-05-02T08:10:06;101417.52;;;12.79;76.52
56681;BME280;42558;52.388;13.390;2023-05-02T08:12:42;101418.55;;;12.90;76.68
56681;BME280;42558;52.388;13.390;2023-05-02T08:15:11;101425.63;;;12.90;75.93
56681;BME280;42558;52.388;13.390;2023-05-02T08:17:43;101428.00;;;12.73;76.30
56681;BME280;42558;52.388;13.390;2023-05-02T08:20:10;101424.27;;;12.59;77.75
56681;BME280;42558;52.388;13.390;2023-05-02T08:22:40;101434.02;;;12.74;77.39
56681;BME280;42558;52.388;13.390;2023-05-02T08:25:10;101435.22;;;12.95;77.45
56681;BME280;42558;52.388;13.390;2023-05-02T08:27:40;101440.89;;;12.96;76.58
56681;BME280;42558;52.388;13.390;2023-05-02T08:30:10;101440.59;;;13.00;77.38
56681;BME280;42558;52.388;13.390;2023-05-02T08:32:40;101439.90;;;13.37;75.64
56681;BME280;42558;52.388;13.390;2023-05-02T08:35:10;101439.29;;;13.74;74.78
56681;BME280;42558;52.388;13.390;2023-05-02T08:37:40;101431.73;;;13.92;72.54
56681;BME280;42558;52.388;13.390;2023-05-02T08:40:11;101434.52;;;13.89;72.81
56681;BME280;42558;52.388;13.390;2023-05-02T08:42:42;101433.98;;;14.05;72.62
56681;BME280;42558;52.388;13.390;2023-05-02T08:45:13;101432.59;;;14.25;71.90
56681;BME280;42558;52.388;13.390;2023-05-02T08:47:44;101438.23;;;14.43;71.03
56681;BME280;42558;52.388;13.390;2023-05-02T08:50:16;101435.79;;;14.47;70.25
56681;BME280;42558;52.388;13.390;2023-05-02T08:52:48;101437.48;;;14.18;70.66
56681;BME280;42558;52.388;13.390;2023-05-02T08:55:18;101443.00;;;14.24;71.06
56681;BME280;42558;52.388;13.390;2023-05-02T08:57:57;101447.70;;;14.34;71.16
56681;BME280;42558;52.388;13.390;2023-05-02T09:00:26;101448.52;;;14.27;70.02
56681;BME280;42558;52.388;13.390;2023-05-02T09:02:59;101455.66;;;14.17;70.96
56681;BME280;42558;52.388;13.390;2023-05-02T09:05:40;101462.91;;;13.84;71.20
56681;BME280;42558;52.388;13.390;2023-05-02T09:08:08;101468.33;;;13.94;72.07
56681;BME280;42558;52.388;13.390;2023-05-02T09:10:39;101473.46;;;13.79;71.54
56681;BME280;42558;52.388;13.390;2023-05-02T09:18:47;101492.86;;;13.62;74.29
56681;BME280;42558;52.388;13.390;2023-05-02T09:21:23;101493.33;;;13.86;73.65
56681;BME280;42558;52.388;13.390;2023-05-02T09:23:56;101491.20;;;14.49;72.59
56681;BME280;42558;52.388;13.390;2023-05-02T09:26:30;101491.71;;;14.64;70.36
56681;BME280;42558;52.388;13.390;2023-05-02T09:29:03;101498.05;;;14.44;70.09
56681;BME280;42558;52.388;13.390;2023-05-02T09:31:34;101503.02;;;14.12;70.29
56681;BME280;42558;52.388;13.390;2023-05-02T09:34:13;101499.76;;;14.22;70.93
56681;BME280;42558;52.388;13.390;2023-05-02T09:36:48;101501.10;;;14.48;69.68
56681;BME280;42558;52.388;13.390;2023-05-02T09:39:27;101506.27;;;14.04;70.50
56681;BME280;42558;52.388;13.390;2023-05-02T09:41:58;101506.27;;;13.87;70.98
56681;BME280;42558;52.388;13.390;2023-05-02T09:44:36;101504.58;;;13.94;72.00
56681;BME280;42558;52.388;13.390;2023-05-02T09:47:07;101504.84;;;14.02;72.45
56681;BME280;42558;52.388;13.390;2023-05-02T09:49:41;101508.79;;;14.07;72.42
56681;BME280;42558;52.388;13.390;2023-05-02T09:52:18;101514.09;;;13.91;71.71
56681;BME280;42558;52.388;13.390;2023-05-02T09:54:50;101516.02;;;14.05;72.63
56681;BME280;42558;52.388;13.390;2023-05-02T09:57:38;101521.88;;;14.07;73.00
56681;BME280;42558;52.388;13.390;2023-05-02T10:00:10;101527.80;;;13.86;73.00
56681;BME280;42558;52.388;13.390;2023-05-02T10:02:42;101530.92;;;13.54;74.08
56681;BME280;42558;52.388;13.390;2023-05-02T10:05:12;101534.15;;;13.33;75.20
56681;BME280;42558;52.388;13.390;2023-05-02T10:07:44;101536.89;;;13.17;76.55
56681;BME280;42558;52.388;13.390;2023-05-02T10:10:17;101542.14;;;13.14;77.28
56681;BME280;42558;52.388;13.390;2023-05-02T10:12:49;101545.11;;;13.22;77.51
56681;BME280;42558;52.388;13.390;2023-05-02T10:15:23;101548.84;;;13.02;76.81
56681;BME280;42558;52.388;13.390;2023-05-02T10:17:58;101550.22;;;12.90;77.30
56681;BME280;42558;52.388;13.390;2023-05-02T10:20:41;101551.73;;;13.06;77.69
56681;BME280;42558;52.388;13.390;2023-05-02T10:23:14;101557.30;;;13.33;77.28
56681;BME280;42558;52.388;13.390;2023-05-02T10:25:45;101555.77;;;14.02;75.21
56681;BME280;42558;52.388;13.390;2023-05-02T10:28:16;101554.69;;;14.16;73.61
56681;BME280;42558;52.388;13.390;2023-05-02T10:30:46;101558.02;;;13.99;73.81
56681;BME280;42558;52.388;13.390;2023-05-02T10:33:20;101559.52;;;13.78;74.28
56681;BME280;42558;52.388;13.390;2023-05-02T10:35:51;101564.92;;;13.85;74.37
56681;BME280;42558;52.388;13.390;2023-05-02T10:38:22;101565.41;;;13.82;73.96
56681;BME280;42558;52.388;13.390;2023-05-02T10:41:11;101571.51;;;13.75;74.72
56681;BME280;42558;52.388;13.390;2023-05-02T10:43:46;101575.17;;;13.35;77.28
56681;BME280;42558;52.388;13.390;2023-05-02T10:46:31;101588.34;;;12.80;79.36
56681;BME280;42558;52.388;13.390;2023-05-02T10:49:10;101593.73;;;12.76;80.07
56681;BME280;42558;52.388;13.390;2023-05-02T10:51:41;101597.70;;;12.80;80.24
56681;BME280;42558;52.388;13.390;2023-05-02T10:59:39;101619.29;;;12.03;82.88
56681;BME280;42558;52.388;13.390;2023-05-02T11:05:06;101624.32;;;12.60;80.97
56681;BME280;42558;52.388;13.390;2023-05-02T11:07:36;101633.28;;;12.49;82.07
56681;BME280;42558;52.388;13.390;2023-05-02T11:12:53;101641.50;;;11.43;84.52
56681;BME280;42558;52.388;13.390;2023-05-02T11:18:10;101653.77;;;11.14;86.41
56681;BME280;42558;52.388;13.390;2023-05-02T11:20:44;101655.70;;;10.93;88.56
56681;BME280;42558;52.388;13.390;2023-05-02T11:25:47;101670.00;;;10.88;89.36
56681;BME280;42558;52.388;13.390;2023-05-02T11:31:52;101686.23;;;10.52;89.73
56681;BME280;42558;52.388;13.390;2023-05-02T11:34:02;101691.45;;;10.44;89.78
56681;BME280;42558;52.388;13.390;2023-05-02T11:36:35;101696.48;;;10.54;89.37
56681;BME280;42558;52.388;13.390;2023-05-02T11:39:18;101704.73;;;10.59;87.00
56681;BME280;42558;52.388;13.390;2023-05-02T11:41:50;101704.04;;;10.41;87.11
56681;BME280;42558;52.388;13.390;2023-05-02T11:44:20;101708.55;;;10.46;85.89
56681;BME280;42558;52.388;13.390;2023-05-02T11:46:50;101708.31;;;10.50;84.84
56681;BME280;42558;52.388;13.390;2023-05-02T11:49:20;101704.96;;;10.68;84.64
56681;BME280;42558;52.388;13.390;2023-05-02T11:51:50;101706.89;;;10.92;81.87
56681;BME280;42558;52.388;13.390;2023-05-02T11:54:20;101708.18;;;10.95;80.62
56681;BME280;42558;52.388;13.390;2023-05-02T11:56:51;101707.36;;;11.16;78.67
56681;BME280;42558;52.388;13.390;2023-05-02T11:59:21;101708.08;;;11.03;78.58
56681;BME280;42558;52.388;13.390;2023-05-02T12:01:51;101706.73;;;11.26;77.42
56681;BME280;42558;52.388;13.390;2023-05-02T12:04:22;101701.54;;;11.64;75.81
56681;BME280;42558;52.388;13.390;2023-05-02T12:06:56;101711.25;;;11.59;73.91
56681;BME280;42558;52.388;13.390;2023-05-02T12:09:26;101717.30;;;11.47;73.71
56681;BME280;42558;52.388;13.390;2023-05-02T12:11:56;101724.75;;;11.09;73.54
56681;BME280;42558;52.388;13.390;2023-05-02T12:14:31;101726.73;;;11.04;74.75
56681;BME280;42558;52.388;13.390;2023-05-02T12:17:04;101731.91;;;11.07;73.94
56681;BME280;42558;52.388;13.390;2023-05-02T12:19:35;101725.45;;;10.96;74.74
56681;BME280;42558;52.388;13.390;2023-05-02T12:22:06;101725.98;;;11.29;73.83
56681;BME280;42558;52.388;13.390;2023-05-02T12:24:38;101727.71;;;11.47;73.41
56681;BME280;42558;52.388;13.390;2023-05-02T12:27:13;101722.15;;;11.94;71.96
56681;BME280;42558;52.388;13.390;2023-05-02T12:29:45;101725.93;;;12.03;70.41
56681;BME280;42558;52.388;13.390;2023-05-02T12:32:31;101732.17;;;11.99;70.39
56681;BME280;42558;52.388;13.390;2023-05-02T12:35:02;101738.71;;;12.48;69.84
56681;BME280;42558;52.388;13.390;2023-05-02T12:37:32;101735.46;;;12.44;68.09
56681;BME280;42558;52.388;13.390;2023-05-02T12:40:14;101732.61;;;12.10;69.19
56681;BME280;42558;52.388;13.390;2023-05-02T12:43:03;101740.41;;;12.44;67.87
56681;BME280;42558;52.388;13.390;2023-05-02T12:45:36;101732.83;;;12.44;68.01
56681;BME280;42558;52.388;13.390;2023-05-02T12:48:26;101731.98;;;12.54;66.92
56681;BME280;42558;52.388;13.390;2023-05-02T12:50:56;101728.85;;;12.99;66.77
56681;BME280;42558;52.388;13.390;2023-05-02T12:53:53;101728.05;;;13.42;66.04
56681;BME280;42558;52.388;13.390;2023-05-02T12:56:23;101735.98;;;12.86;64.78
56681;BME280;42558;52.388;13.390;2023-05-02T12:58:53;101736.55;;;12.61;65.76
56681;BME280;42558;52.388;13.390;2023-05-02T13:01:22;101740.02;;;12.19;66.93
56681;BME280;42558;52.388;13.390;2023-05-02T13:03:52;101738.16;;;12.22;66.32
56681;BME280;42558;52.388;13.390;2023-05-02T13:06:22;101745.27;;;12.40;66.85
56681;BME280;42558;52.388;13.390;2023-05-02T13:08:52;101748.52;;;12.86;65.41
56681;BME280;42558;52.388;13.390;2023-05-02T13:11:22;101744.95;;;12.94;64.88
56681;BME280;42558;52.388;13.390;2023-05-02T13:13:53;101750.20;;;13.26;63.89
56681;BME280;42558;52.388;13.390;2023-05-02T13:16:23;101755.52;;;12.84;63.41
56681;BME280;42558;52.388;13.390;2023-05-02T13:18:54;101759.79;;;12.43;65.05
56681;BME280;42558;52.388;13.390;2023-05-02T13:21:24;101758.91;;;12.59;63.91
56681;BME280;42558;52.388;13.390;2023-05-02T13:23:54;101759.90;;;12.24;65.02
56681;BME280;42558;52.388;13.390;2023-05-02T13:26:25;101766.46;;;12.34;64.76
56681;BME280;42558;52.388;13.390;2023-05-02T13:28:55;101764.71;;;12.34;64.87
56681;BME280;42558;52.388;13.390;2023-05-02T13:31:25;101767.58;;;12.36;64.67
56681;BME280;42558;52.388;13.390;2023-05-02T13:33:53;101766.56;;;12.22;64.50
56681;BME280;42558;52.388;13.390;2023-05-02T13:36:22;101764.64;;;12.47;63.56
56681;BME280;42558;52.388;13.390;2023-05-02T13:38:50;101769.85;;;12.43;62.81
56681;BME280;42558;52.388;13.390;2023-05-02T13:41:18;101767.73;;;12.27;63.70
56681;BME280;42558;52.388;13.390;2023-05-02T13:43:47;101771.13;;;12.38;63.65
56681;BME280;42558;52.388;13.390;2023-05-02T13:46:15;101774.65;;;12.45;62.87
56681;BME280;42558;52.388;13.390;2023-05-02T13:48:44;101772.10;;;12.34;62.23
56681;BME280;42558;52.388;13.390;2023-05-02T13:51:12;101773.88;;;12.26;63.50
56681;BME280;42558;52.388;13.390;2023-05-02T13:53:40;101774.48;;;12.45;61.41
56681;BME280;42558;52.388;13.390;2023-05-02T13:56:09;101777.45;;;12.94;61.35